Metar z połowy godziny Komunikat METAR ze strony awiacja.imgw.pl Metar G30 EPZG METAR EPZG 241930Z VRB02KT CAVOK 15/10 Q1012 =